createdAt,value
2022-08-28T00:01:29.592Z,2.00
2022-08-28T00:03:56.050Z,2.72
2022-08-28T00:06:22.521Z,2.70
2022-08-28T00:08:48.980Z,2.65
2022-08-28T00:11:15.452Z,2.70
2022-08-28T00:13:41.929Z,2.72
2022-08-28T00:16:08.448Z,2.50
2022-08-28T00:18:34.965Z,2.85
2022-08-28T00:21:01.437Z,3.15
2022-08-28T00:23:36.925Z,2.33
2022-08-28T00:26:09.095Z,2.58
2022-08-28T00:28:35.614Z,2.80
2022-08-28T00:31:02.157Z,2.40
2022-08-28T00:33:28.686Z,1.92
2022-08-28T00:35:55.161Z,2.50
2022-08-28T00:38:21.621Z,1.92
2022-08-28T00:40:48.165Z,2.42
2022-08-28T00:43:14.980Z,2.45
2022-08-28T00:45:41.455Z,2.65
2022-08-28T00:48:07.915Z,2.60
2022-08-28T00:50:34.405Z,2.05
2022-08-28T00:53:00.866Z,2.33
2022-08-28T00:55:27.352Z,2.25
2022-08-28T00:57:53.805Z,3.35
2022-08-28T01:00:20.277Z,2.53
2022-08-28T01:02:46.791Z,2.40
2022-08-28T01:05:13.303Z,2.33
2022-08-28T01:07:39.756Z,2.10
2022-08-28T01:10:06.213Z,1.48
2022-08-28T01:12:32.686Z,1.75
2022-08-28T01:14:59.148Z,1.10
2022-08-28T01:17:25.624Z,1.20
2022-08-28T01:19:52.089Z,1.10
2022-08-28T01:22:18.553Z,2.13
2022-08-28T01:24:45.014Z,1.85
2022-08-28T01:27:11.494Z,1.55
2022-08-28T01:29:37.967Z,2.17
2022-08-28T01:32:04.432Z,1.70
2022-08-28T01:34:31.908Z,1.83
2022-08-28T01:36:58.585Z,1.88
2022-08-28T01:39:29.860Z,1.42
2022-08-28T01:41:56.345Z,1.42
2022-08-28T01:44:22.833Z,1.42
2022-08-28T01:46:49.362Z,1.42
2022-08-28T01:49:15.869Z,1.50
2022-08-28T01:51:42.341Z,1.90
2022-08-28T01:54:08.801Z,1.70
2022-08-28T01:56:36.333Z,2.20
2022-08-28T01:59:02.793Z,1.40
2022-08-28T02:01:29.306Z,1.60
2022-08-28T02:03:55.857Z,1.50
2022-08-28T02:06:22.367Z,1.40
2022-08-28T02:08:48.833Z,1.20
2022-08-28T02:11:15.305Z,1.27
2022-08-28T02:13:41.790Z,0.98
2022-08-28T02:16:08.313Z,1.33
2022-08-28T02:18:34.856Z,0.90
2022-08-28T02:21:01.321Z,1.38
2022-08-28T02:23:27.795Z,0.90
2022-08-28T02:25:54.253Z,1.70
2022-08-28T02:28:20.729Z,1.27
2022-08-28T02:30:47.241Z,1.23
2022-08-28T02:33:13.761Z,1.20
2022-08-28T02:35:40.371Z,1.00
2022-08-28T02:38:06.912Z,1.50
2022-08-28T02:40:33.526Z,1.60
2022-08-28T02:43:00.078Z,1.52
2022-08-28T02:45:26.546Z,1.85
2022-08-28T02:47:53.023Z,1.70
2022-08-28T02:50:19.476Z,1.70
2022-08-28T02:52:45.942Z,1.10
2022-08-28T02:55:12.405Z,1.10
2022-08-28T02:57:38.872Z,0.90
2022-08-28T03:00:05.336Z,0.70
2022-08-28T03:02:31.895Z,0.85
2022-08-28T03:04:58.412Z,0.80
2022-08-28T03:07:24.890Z,0.93
2022-08-28T03:09:51.349Z,0.63
2022-08-28T03:12:17.821Z,0.60
2022-08-28T03:14:44.282Z,0.50
2022-08-28T03:17:10.759Z,0.70
2022-08-28T03:19:37.217Z,0.82
2022-08-28T03:22:03.690Z,0.80
2022-08-28T03:24:30.153Z,0.80
2022-08-28T03:26:56.624Z,0.63
2022-08-28T03:29:23.088Z,0.70
2022-08-28T03:31:49.548Z,0.63
2022-08-28T03:34:16.020Z,1.27
2022-08-28T03:36:42.485Z,1.50
2022-08-28T03:39:08.958Z,1.30
2022-08-28T03:41:35.416Z,1.50
2022-08-28T03:44:01.886Z,1.20
2022-08-28T03:46:30.076Z,0.93
2022-08-28T03:48:56.584Z,0.70
2022-08-28T03:51:29.265Z,0.70
2022-08-28T03:53:55.958Z,0.52
2022-08-28T03:56:22.423Z,0.50
2022-08-28T03:58:48.901Z,0.55
2022-08-28T04:01:15.427Z,0.57
2022-08-28T04:03:42.015Z,0.75
2022-08-28T04:06:08.512Z,0.80
2022-08-28T04:08:34.987Z,0.75
2022-08-28T04:11:01.447Z,0.60
2022-08-28T04:13:27.921Z,1.00
2022-08-28T04:15:54.381Z,1.73
2022-08-28T04:18:20.853Z,1.60
2022-08-28T04:20:47.315Z,1.38
2022-08-28T04:23:13.800Z,1.42
2022-08-28T04:25:40.264Z,1.23
2022-08-28T04:28:06.734Z,1.23
2022-08-28T04:30:33.191Z,1.38
2022-08-28T04:32:59.669Z,1.50
2022-08-28T04:35:26.125Z,1.25
2022-08-28T04:37:52.598Z,1.10
2022-08-28T04:40:19.135Z,1.50
2022-08-28T04:42:45.668Z,1.75
2022-08-28T04:45:12.143Z,1.40
2022-08-28T04:47:38.643Z,1.38
2022-08-28T04:50:05.120Z,1.02
2022-08-28T04:52:31.593Z,1.20
2022-08-28T04:54:58.057Z,1.00
2022-08-28T04:57:25.473Z,0.95
2022-08-28T04:59:51.937Z,0.80
2022-08-28T05:02:18.490Z,1.08
2022-08-28T05:04:44.983Z,1.38
2022-08-28T05:07:11.446Z,1.55
2022-08-28T05:09:37.923Z,2.03
2022-08-28T05:12:04.383Z,2.15
2022-08-28T05:14:30.857Z,2.15
2022-08-28T05:16:57.315Z,2.10
2022-08-28T05:19:23.801Z,1.83
2022-08-28T05:21:50.289Z,1.65
2022-08-28T05:24:16.774Z,1.40
2022-08-28T05:26:43.240Z,1.17
2022-08-28T05:29:09.889Z,1.00
2022-08-28T05:31:36.388Z,1.13
2022-08-28T05:34:02.901Z,0.95
2022-08-28T05:36:32.426Z,1.35
2022-08-28T05:38:59.492Z,1.27
2022-08-28T05:41:25.951Z,1.25
2022-08-28T05:43:52.421Z,1.00
2022-08-28T05:46:18.915Z,0.65
2022-08-28T05:48:45.407Z,1.00
2022-08-28T05:51:11.871Z,1.00
2022-08-28T05:53:38.337Z,0.75
2022-08-28T05:56:04.797Z,0.85
2022-08-28T05:58:31.278Z,0.70
2022-08-28T06:00:57.761Z,0.90
2022-08-28T06:03:24.270Z,0.45
2022-08-28T06:05:50.737Z,0.82
2022-08-28T06:08:17.202Z,1.10
2022-08-28T06:10:43.708Z,1.20
2022-08-28T06:13:12.322Z,0.80
2022-08-28T06:15:38.981Z,1.08
2022-08-28T06:18:05.441Z,1.15
2022-08-28T06:20:31.916Z,0.90
2022-08-28T06:22:58.382Z,1.17
2022-08-28T06:25:24.855Z,1.05
2022-08-28T06:27:51.325Z,1.10
2022-08-28T06:30:17.793Z,1.00
2022-08-28T06:32:44.248Z,1.20
2022-08-28T06:35:11.004Z,1.05
2022-08-28T06:37:37.464Z,1.08
2022-08-28T06:40:03.968Z,1.00
2022-08-28T06:42:30.460Z,0.75
2022-08-28T06:44:56.927Z,1.42
2022-08-28T06:47:23.386Z,1.33
2022-08-28T06:49:49.861Z,1.02
2022-08-28T06:52:16.320Z,1.20
2022-08-28T06:54:55.319Z,1.58
2022-08-28T06:57:22.209Z,1.60
2022-08-28T06:59:48.679Z,1.50
2022-08-28T07:02:15.237Z,1.10
2022-08-28T07:04:41.884Z,1.05
2022-08-28T07:07:08.468Z,1.48
2022-08-28T07:09:34.946Z,1.05
2022-08-28T07:12:01.415Z,0.70
2022-08-28T07:14:27.888Z,0.80
2022-08-28T07:16:54.350Z,1.30
2022-08-28T07:19:20.822Z,0.85
2022-08-28T07:21:47.280Z,0.70
2022-08-28T07:24:13.736Z,0.70
2022-08-28T07:26:40.206Z,1.00
2022-08-28T07:29:10.148Z,0.95
2022-08-28T07:31:37.195Z,1.05
2022-08-28T07:34:03.717Z,0.98
2022-08-28T07:36:30.224Z,0.80
2022-08-28T07:38:56.684Z,0.70
2022-08-28T07:41:23.156Z,0.75
2022-08-28T07:43:49.622Z,1.10
2022-08-28T07:46:16.164Z,0.88
2022-08-28T07:48:42.661Z,0.80
2022-08-28T07:51:09.144Z,0.60
2022-08-28T07:53:36.633Z,0.80
2022-08-28T07:56:03.268Z,1.17
2022-08-28T07:58:29.732Z,1.45
2022-08-28T08:00:56.270Z,1.52
2022-08-28T08:03:22.789Z,1.25
2022-08-28T08:05:49.337Z,0.93
2022-08-28T08:08:15.814Z,1.35
2022-08-28T08:10:42.285Z,1.08
2022-08-28T08:13:08.745Z,0.93
2022-08-28T08:15:35.301Z,1.10
2022-08-28T08:18:01.811Z,1.05
2022-08-28T08:20:28.275Z,1.15
2022-08-28T08:22:54.755Z,1.25
2022-08-28T08:25:21.223Z,1.33
2022-08-28T08:27:47.700Z,1.00
2022-08-28T08:30:14.167Z,1.10
2022-08-28T08:32:40.644Z,1.10
2022-08-28T08:35:07.107Z,0.90
2022-08-28T08:37:33.579Z,1.15
2022-08-28T08:40:00.107Z,1.23
2022-08-28T08:42:26.651Z,1.08
2022-08-28T08:44:53.105Z,0.90
2022-08-28T08:47:19.575Z,0.73
2022-08-28T08:49:46.030Z,1.08
2022-08-28T08:52:12.501Z,0.90
2022-08-28T08:54:38.967Z,1.35
2022-08-28T08:57:05.439Z,1.40
2022-08-28T08:59:31.896Z,1.08
2022-08-28T09:01:58.405Z,1.10
2022-08-28T09:04:24.890Z,1.23
2022-08-28T09:06:52.562Z,1.17
2022-08-28T09:09:19.020Z,0.90
2022-08-28T09:11:45.497Z,1.00
2022-08-28T09:14:17.051Z,0.90
2022-08-28T09:16:46.993Z,1.00
2022-08-28T09:19:13.481Z,1.20
2022-08-28T09:21:39.946Z,1.08
2022-08-28T09:24:10.879Z,0.88
2022-08-28T09:26:37.659Z,0.88
2022-08-28T09:29:04.134Z,0.90
2022-08-28T09:31:30.621Z,1.00
2022-08-28T09:33:57.117Z,0.88
2022-08-28T09:36:23.578Z,1.10
2022-08-28T09:38:50.049Z,0.88
2022-08-28T09:41:16.509Z,1.00
2022-08-28T09:43:42.977Z,0.90
2022-08-28T09:46:09.517Z,0.63
2022-08-28T09:48:35.989Z,0.75
2022-08-28T09:51:02.444Z,0.80
2022-08-28T09:53:28.923Z,0.88
2022-08-28T09:55:55.381Z,1.02
2022-08-28T09:58:21.857Z,1.20
2022-08-28T10:00:48.330Z,1.30
2022-08-28T10:03:14.801Z,1.20
2022-08-28T10:05:41.261Z,1.10
2022-08-28T10:08:07.725Z,1.05
2022-08-28T10:10:34.198Z,1.08
2022-08-28T10:13:00.665Z,0.70
2022-08-28T10:15:27.133Z,0.93
2022-08-28T10:17:53.593Z,0.90
2022-08-28T10:20:20.061Z,0.88
2022-08-28T10:22:46.521Z,1.20
2022-08-28T10:25:12.997Z,0.98
2022-08-28T10:27:39.533Z,0.68
2022-08-28T10:30:08.989Z,1.10
2022-08-28T10:32:39.091Z,0.98
2022-08-28T10:35:05.587Z,0.93
2022-08-28T10:37:32.047Z,0.80
2022-08-28T10:39:58.550Z,1.20
2022-08-28T10:42:25.028Z,1.00
2022-08-28T10:45:02.565Z,0.90
2022-08-28T10:47:29.041Z,1.08
2022-08-28T10:49:55.508Z,0.93
2022-08-28T10:52:21.999Z,0.85
2022-08-28T10:54:48.467Z,0.68
2022-08-28T10:57:14.944Z,0.60
2022-08-28T10:59:41.901Z,0.90
2022-08-28T11:02:08.932Z,1.10
2022-08-28T11:04:35.453Z,1.05
2022-08-28T11:07:02.232Z,0.88
2022-08-28T11:09:28.777Z,1.00
2022-08-28T11:11:59.649Z,0.98
2022-08-28T11:14:28.168Z,0.90
2022-08-28T11:16:54.711Z,1.10
2022-08-28T11:19:21.207Z,0.63
2022-08-28T11:21:47.663Z,0.82
2022-08-28T11:24:14.244Z,0.95
2022-08-28T11:26:40.709Z,1.00
2022-08-28T11:29:07.308Z,0.88
2022-08-28T11:31:33.823Z,0.77
2022-08-28T11:34:00.309Z,0.75
2022-08-28T11:36:26.775Z,1.65
2022-08-28T11:38:53.246Z,1.30
2022-08-28T11:41:19.712Z,0.82
2022-08-28T11:43:46.187Z,0.82
2022-08-28T11:46:12.668Z,0.60
2022-08-28T11:48:39.178Z,0.68
2022-08-28T11:51:05.652Z,0.90
2022-08-28T11:53:32.121Z,0.75
2022-08-28T11:55:58.615Z,0.73
2022-08-28T11:58:25.099Z,1.17
2022-08-28T12:00:51.554Z,0.80
2022-08-28T12:03:18.028Z,0.75
2022-08-28T12:05:45.244Z,0.50
2022-08-28T12:08:12.022Z,1.25
2022-08-28T12:10:38.494Z,1.30
2022-08-28T12:13:04.954Z,1.38
2022-08-28T12:15:31.427Z,1.40
2022-08-28T12:17:57.888Z,1.20
2022-08-28T12:20:24.366Z,0.93
2022-08-28T12:22:50.830Z,0.90
2022-08-28T12:25:17.305Z,0.90
2022-08-28T12:27:43.761Z,1.05
2022-08-28T12:30:10.229Z,1.70
2022-08-28T12:32:36.691Z,1.48
2022-08-28T12:35:03.179Z,3.08
2022-08-28T12:37:29.640Z,1.10
2022-08-28T12:39:56.143Z,1.00
2022-08-28T12:42:22.640Z,1.10
2022-08-28T12:44:49.099Z,1.00
2022-08-28T12:47:15.569Z,0.88
2022-08-28T12:49:42.031Z,0.70
2022-08-28T12:52:08.508Z,1.10
2022-08-28T12:54:34.969Z,0.95
2022-08-28T12:57:01.440Z,0.68
2022-08-28T12:59:27.897Z,0.90
2022-08-28T13:01:54.543Z,1.00
2022-08-28T13:04:21.192Z,1.13
2022-08-28T13:06:47.661Z,1.08
2022-08-28T13:09:14.128Z,1.15
2022-08-28T13:11:40.592Z,1.13
2022-08-28T13:14:07.053Z,0.95
2022-08-28T13:16:33.566Z,1.17
2022-08-28T13:19:00.985Z,1.20
2022-08-28T13:21:33.232Z,0.85
2022-08-28T13:24:00.675Z,1.00
2022-08-28T13:26:28.156Z,1.00
2022-08-28T13:28:54.620Z,1.40
2022-08-28T13:31:21.089Z,0.93
2022-08-28T13:33:47.562Z,1.23
2022-08-28T13:36:14.017Z,0.93
2022-08-28T13:38:40.493Z,0.85
2022-08-28T13:41:07.033Z,1.02
2022-08-28T13:43:33.541Z,1.48
2022-08-28T13:46:00.040Z,1.35
2022-08-28T13:48:26.565Z,1.10
2022-08-28T13:50:53.016Z,1.08
2022-08-28T13:53:20.183Z,1.30
2022-08-28T13:55:47.173Z,1.25
2022-08-28T13:58:13.650Z,1.08
2022-08-28T14:00:40.134Z,0.70
2022-08-28T14:03:06.743Z,0.88
2022-08-28T14:05:33.207Z,0.98
2022-08-28T14:07:59.679Z,0.82
2022-08-28T14:10:26.137Z,0.80
2022-08-28T14:12:52.609Z,0.98
2022-08-28T14:15:19.069Z,1.17
2022-08-28T14:17:45.546Z,0.85
2022-08-28T14:20:12.007Z,1.00
2022-08-28T14:22:38.479Z,1.10
2022-08-28T14:25:04.947Z,1.30
2022-08-28T14:27:31.405Z,1.13
2022-08-28T14:29:57.876Z,0.80
2022-08-28T14:32:24.341Z,0.80
2022-08-28T14:34:50.819Z,1.00
2022-08-28T14:37:17.280Z,1.00
2022-08-28T14:39:43.751Z,0.90
2022-08-28T14:42:13.181Z,1.02
2022-08-28T14:44:39.891Z,1.10
2022-08-28T14:47:06.354Z,1.25
2022-08-28T14:49:32.831Z,1.23
2022-08-28T14:51:59.291Z,1.10
2022-08-28T14:54:25.751Z,1.50
2022-08-28T14:56:52.211Z,1.85
2022-08-28T14:59:23.859Z,1.52
2022-08-28T15:01:50.814Z,1.70
2022-08-28T15:04:17.409Z,1.23
2022-08-28T15:06:43.940Z,1.50
2022-08-28T15:09:10.419Z,1.50
2022-08-28T15:11:36.877Z,1.67
2022-08-28T15:14:03.372Z,1.55
2022-08-28T15:16:30.516Z,1.30
2022-08-28T15:18:57.129Z,1.20
2022-08-28T15:21:23.586Z,1.17
2022-08-28T15:23:50.049Z,1.13
2022-08-28T15:26:16.519Z,0.63
2022-08-28T15:28:42.986Z,0.88
2022-08-28T15:31:09.499Z,1.00
2022-08-28T15:33:36.019Z,0.80
2022-08-28T15:36:02.502Z,1.05
2022-08-28T15:38:28.963Z,0.80
2022-08-28T15:40:55.438Z,0.90
2022-08-28T15:43:21.899Z,1.15
2022-08-28T15:45:48.453Z,1.13
2022-08-28T15:48:14.933Z,1.25
2022-08-28T15:50:41.407Z,0.90
2022-08-28T15:53:07.982Z,0.73
2022-08-28T15:55:36.524Z,1.05
2022-08-28T15:58:03.436Z,1.17
2022-08-28T16:00:30.152Z,1.23
2022-08-28T16:02:56.610Z,1.20
2022-08-28T16:05:23.073Z,0.80
2022-08-28T16:07:49.710Z,1.27
2022-08-28T16:10:16.165Z,0.95
2022-08-28T16:12:42.637Z,0.90
2022-08-28T16:15:11.111Z,1.20
2022-08-28T16:17:37.581Z,1.38
2022-08-28T16:20:04.042Z,0.73
2022-08-28T16:22:30.513Z,0.73
2022-08-28T16:24:56.976Z,0.77
2022-08-28T16:27:23.464Z,0.88
2022-08-28T16:29:52.945Z,0.90
2022-08-28T16:32:19.580Z,1.05
2022-08-28T16:34:46.041Z,1.00
2022-08-28T16:37:12.855Z,0.80
2022-08-28T16:39:39.325Z,0.80
2022-08-28T16:42:05.806Z,0.77
2022-08-28T16:44:32.273Z,0.77
2022-08-28T16:46:58.793Z,0.80
2022-08-28T16:49:25.289Z,0.60
2022-08-28T16:51:51.761Z,0.60
2022-08-28T16:54:18.272Z,0.70
2022-08-28T16:56:44.814Z,0.90
2022-08-28T16:59:11.300Z,0.80
2022-08-28T17:01:37.868Z,1.02
2022-08-28T17:04:07.486Z,0.57
2022-08-28T17:06:33.958Z,0.90
2022-08-28T17:09:00.422Z,0.60
2022-08-28T17:11:26.937Z,0.70
2022-08-28T17:13:53.408Z,0.57
2022-08-28T17:16:19.944Z,0.60
2022-08-28T17:18:48.163Z,0.73
2022-08-28T17:21:20.160Z,0.52
2022-08-28T17:23:46.642Z,0.52
2022-08-28T17:26:13.096Z,0.60
2022-08-28T17:28:39.572Z,0.52
2022-08-28T17:31:06.080Z,0.63
2022-08-28T17:33:32.598Z,0.63
2022-08-28T17:35:59.056Z,0.50
2022-08-28T17:38:25.834Z,0.60
2022-08-28T17:40:52.295Z,0.60
2022-08-28T17:43:18.757Z,0.70
2022-08-28T17:45:45.217Z,0.60
2022-08-28T17:48:11.678Z,0.60
2022-08-28T17:50:38.153Z,0.40
2022-08-28T17:53:04.623Z,0.57
2022-08-28T17:55:31.096Z,0.50
2022-08-28T17:57:57.560Z,0.50
2022-08-28T18:00:24.036Z,0.30
2022-08-28T18:02:50.496Z,0.70
2022-08-28T18:05:16.957Z,0.70
2022-08-28T18:07:43.436Z,0.65
2022-08-28T18:10:09.915Z,0.60
2022-08-28T18:12:36.370Z,0.63
2022-08-28T18:15:02.839Z,0.60
2022-08-28T18:17:29.297Z,0.50
2022-08-28T18:19:55.782Z,0.47
2022-08-28T18:22:25.374Z,0.50
2022-08-28T18:24:54.197Z,0.70
2022-08-28T18:27:20.659Z,0.70
2022-08-28T18:29:47.147Z,0.60
2022-08-28T18:32:13.627Z,0.47
2022-08-28T18:34:40.100Z,0.50
2022-08-28T18:37:06.560Z,0.70
2022-08-28T18:39:33.038Z,0.77
2022-08-28T18:41:59.499Z,0.68
2022-08-28T18:44:25.957Z,0.80
2022-08-28T18:46:52.526Z,0.60
2022-08-28T18:49:19.054Z,1.05
2022-08-28T18:51:45.531Z,0.60
2022-08-28T18:54:12.197Z,0.70
2022-08-28T18:56:38.768Z,1.08
2022-08-28T18:59:05.225Z,0.70
2022-08-28T19:01:31.834Z,0.60
2022-08-28T19:03:58.428Z,0.50
2022-08-28T19:06:24.907Z,0.80
2022-08-28T19:08:51.369Z,0.50
2022-08-28T19:11:17.853Z,0.43
2022-08-28T19:13:44.311Z,0.52
2022-08-28T19:16:10.842Z,0.68
2022-08-28T19:18:37.340Z,0.70
2022-08-28T19:21:03.867Z,0.73
2022-08-28T19:23:30.324Z,1.00
2022-08-28T19:25:56.803Z,1.00
2022-08-28T19:28:23.265Z,0.70
2022-08-28T19:30:49.783Z,1.08
2022-08-28T19:33:16.274Z,0.98
2022-08-28T19:35:42.749Z,0.73
2022-08-28T19:38:09.203Z,1.35
2022-08-28T19:40:35.728Z,1.02
2022-08-28T19:43:02.212Z,1.20
2022-08-28T19:45:31.901Z,1.10
2022-08-28T19:47:58.366Z,0.75
2022-08-28T19:50:24.841Z,1.10
2022-08-28T19:52:51.297Z,1.10
2022-08-28T19:55:17.777Z,1.10
2022-08-28T19:57:44.234Z,0.88
2022-08-28T20:00:10.695Z,1.00
2022-08-28T20:02:37.239Z,0.70
2022-08-28T20:05:03.769Z,0.88
2022-08-28T20:07:30.240Z,0.98
2022-08-28T20:09:56.704Z,0.80
2022-08-28T20:12:23.184Z,0.63
2022-08-28T20:14:49.643Z,1.13
2022-08-28T20:17:16.119Z,0.90
2022-08-28T20:19:42.580Z,0.70
2022-08-28T20:22:09.052Z,0.82
2022-08-28T20:24:35.511Z,1.25
2022-08-28T20:27:01.980Z,1.10
2022-08-28T20:29:28.437Z,1.00
2022-08-28T20:31:54.912Z,0.80
2022-08-28T20:34:21.369Z,1.40
2022-08-28T20:36:47.858Z,1.13
2022-08-28T20:39:14.319Z,1.20
2022-08-28T20:41:40.775Z,1.02
2022-08-28T20:44:07.251Z,0.80
2022-08-28T20:46:37.167Z,0.80
2022-08-28T20:49:07.113Z,0.60
2022-08-28T20:51:33.575Z,0.90
2022-08-28T20:54:00.053Z,0.70
2022-08-28T20:56:26.520Z,1.10
2022-08-28T20:58:52.989Z,0.70
2022-08-28T21:01:19.485Z,0.65
2022-08-28T21:03:46.085Z,0.77
2022-08-28T21:06:12.580Z,0.50
2022-08-28T21:08:39.088Z,0.40
2022-08-28T21:11:05.545Z,0.60
2022-08-28T21:13:32.018Z,0.50
2022-08-28T21:15:58.472Z,0.77
2022-08-28T21:18:24.944Z,0.60
2022-08-28T21:20:51.403Z,0.60
2022-08-28T21:23:17.972Z,0.60
2022-08-28T21:25:44.437Z,0.90
2022-08-28T21:28:10.889Z,1.10
2022-08-28T21:30:37.425Z,0.90
2022-08-28T21:33:03.944Z,1.10
2022-08-28T21:35:30.414Z,1.02
2022-08-28T21:37:56.872Z,0.80
2022-08-28T21:40:23.410Z,0.65
2022-08-28T21:42:49.955Z,0.50
2022-08-28T21:45:16.420Z,0.88
2022-08-28T21:47:42.876Z,0.43
2022-08-28T21:50:09.351Z,0.95
2022-08-28T21:52:35.810Z,0.50
2022-08-28T21:55:02.270Z,0.50
2022-08-28T21:57:28.746Z,0.70
2022-08-28T21:59:55.205Z,0.50
2022-08-28T22:02:21.703Z,0.90
2022-08-28T22:04:48.246Z,1.02
2022-08-28T22:07:14.721Z,0.80
2022-08-28T22:09:41.181Z,0.60
2022-08-28T22:12:07.651Z,0.50
2022-08-28T22:14:34.109Z,0.57
2022-08-28T22:17:00.654Z,0.50
2022-08-28T22:19:27.153Z,0.65
2022-08-28T22:21:53.629Z,0.70
2022-08-28T22:24:20.091Z,0.60
2022-08-28T22:26:48.188Z,1.00
2022-08-28T22:29:14.652Z,0.68
2022-08-28T22:31:45.762Z,0.73
2022-08-28T22:34:12.756Z,0.57
2022-08-28T22:36:39.238Z,0.80
2022-08-28T22:39:05.707Z,0.73
2022-08-28T22:41:32.169Z,1.10
2022-08-28T22:43:58.632Z,1.27
2022-08-28T22:46:25.149Z,0.93
2022-08-28T22:48:51.663Z,1.00
2022-08-28T22:51:18.141Z,0.93
2022-08-28T22:53:44.600Z,0.90
2022-08-28T22:56:11.069Z,0.90
2022-08-28T22:58:37.527Z,0.70
2022-08-28T23:01:03.993Z,0.75
2022-08-28T23:03:30.603Z,0.65
2022-08-28T23:05:57.130Z,0.40
2022-08-28T23:08:23.596Z,0.70
2022-08-28T23:10:59.037Z,1.10
2022-08-28T23:13:26.033Z,0.73
2022-08-28T23:15:52.488Z,0.80
2022-08-28T23:18:18.957Z,0.70
2022-08-28T23:20:45.423Z,0.90
2022-08-28T23:23:11.895Z,1.10
2022-08-28T23:25:38.349Z,1.00
2022-08-28T23:28:06.569Z,1.02
2022-08-28T23:30:33.177Z,0.70
2022-08-28T23:32:59.697Z,0.70
2022-08-28T23:35:26.161Z,0.63
2022-08-28T23:37:52.639Z,0.88
2022-08-28T23:40:19.198Z,1.10
2022-08-28T23:42:45.726Z,1.00
2022-08-28T23:45:12.183Z,0.90
2022-08-28T23:47:40.368Z,0.85
2022-08-28T23:50:07.268Z,0.70
2022-08-28T23:52:33.740Z,0.80
2022-08-28T23:55:00.908Z,1.23
2022-08-28T23:57:27.377Z,0.98
2022-08-28T23:59:54.184Z,0.77
